createdAt,value
2023-01-20T00:01:52.632Z,15.38
2023-01-20T00:04:21.969Z,15.65
2023-01-20T00:06:52.016Z,12.77
2023-01-20T00:09:19.044Z,14.35
2023-01-20T00:12:32.669Z,20.58
2023-01-20T00:25:37.320Z,20.00
2023-01-20T00:28:05.057Z,22.45
2023-01-20T00:30:32.102Z,20.20
2023-01-20T00:33:04.075Z,27.38
2023-01-20T00:39:34.098Z,20.50
2023-01-20T00:42:02.754Z,22.40
2023-01-20T00:44:33.443Z,21.75
2023-01-20T00:47:02.738Z,23.58
2023-01-20T00:49:29.337Z,22.83
2023-01-20T00:51:55.916Z,24.20
2023-01-20T00:54:22.646Z,21.75
2023-01-20T00:56:49.218Z,22.17
2023-01-20T00:59:17.063Z,22.58
2023-01-20T01:06:00.421Z,23.60
2023-01-20T01:09:10.694Z,21.67
2023-01-20T01:12:16.948Z,23.65
2023-01-20T01:14:43.787Z,22.52
2023-01-20T01:17:10.270Z,21.33
2023-01-20T01:19:37.114Z,17.40
2023-01-20T01:22:03.628Z,18.63
2023-01-20T01:24:30.299Z,20.45
2023-01-20T01:26:57.047Z,23.27
2023-01-20T01:29:23.655Z,20.27
2023-01-20T01:31:50.196Z,20.75
2023-01-20T01:34:19.179Z,20.17
2023-01-20T01:36:45.933Z,20.33
2023-01-20T01:39:12.682Z,21.60
2023-01-20T01:41:39.345Z,21.90
2023-01-20T01:44:10.970Z,21.13
2023-01-20T01:46:38.127Z,22.67
2023-01-20T01:49:14.089Z,18.25
2023-01-20T01:51:50.112Z,20.10
2023-01-20T01:54:21.762Z,20.35
2023-01-20T01:56:49.621Z,19.73
2023-01-20T01:59:17.313Z,22.00
2023-01-20T02:01:46.361Z,19.40
2023-01-20T02:04:14.759Z,17.70
2023-01-20T02:06:43.679Z,16.85
2023-01-20T02:09:10.414Z,20.58
2023-01-20T02:11:39.371Z,20.23
2023-01-20T02:14:06.412Z,22.70
2023-01-20T02:16:38.347Z,21.13
2023-01-20T02:19:27.756Z,21.10
2023-01-20T02:21:57.291Z,25.15
2023-01-20T02:24:23.897Z,20.55
2023-01-20T02:27:08.541Z,21.45
2023-01-20T02:29:37.937Z,19.00
2023-01-20T02:32:04.690Z,19.90
2023-01-20T02:34:44.725Z,18.90
2023-01-20T02:37:14.077Z,19.95
2023-01-20T02:39:53.672Z,16.92
2023-01-20T02:42:25.732Z,16.35
2023-01-20T02:44:52.292Z,18.73
2023-01-20T02:47:24.815Z,15.30
2023-01-20T02:49:51.484Z,15.00
2023-01-20T02:52:32.874Z,15.85
2023-01-20T02:55:01.754Z,15.20
2023-01-20T02:57:31.251Z,17.67
2023-01-20T03:00:00.338Z,16.92
2023-01-20T03:02:28.047Z,16.10
2023-01-20T03:04:57.481Z,15.10
2023-01-20T03:07:26.028Z,15.20
2023-01-20T03:09:55.908Z,14.70
2023-01-20T03:12:25.830Z,14.20
2023-01-20T03:14:52.884Z,17.17
2023-01-20T03:17:20.154Z,15.27
2023-01-20T03:19:47.122Z,15.90
2023-01-20T03:22:13.836Z,13.55
2023-01-20T03:24:41.123Z,15.57
2023-01-20T03:27:07.838Z,15.65
2023-01-20T03:29:34.446Z,13.68
2023-01-20T03:32:02.363Z,12.55
2023-01-20T03:34:30.395Z,11.27
2023-01-20T03:36:57.591Z,13.23
2023-01-20T03:39:24.448Z,9.77
2023-01-20T03:42:07.452Z,9.07
2023-01-20T03:44:34.278Z,10.50
2023-01-20T03:47:00.884Z,12.57
2023-01-20T03:49:30.761Z,10.75
2023-01-20T03:52:06.480Z,14.07
2023-01-20T03:54:44.349Z,13.18
2023-01-20T03:57:13.592Z,15.25
2023-01-20T03:59:43.243Z,13.13
2023-01-20T04:02:10.603Z,8.20
2023-01-20T04:04:38.766Z,14.40
2023-01-20T04:07:06.885Z,12.65
2023-01-20T04:09:36.580Z,14.65
2023-01-20T04:12:03.753Z,11.23
2023-01-20T04:14:30.250Z,9.13
2023-01-20T04:16:57.925Z,13.35
2023-01-20T04:19:25.194Z,10.00
2023-01-20T04:22:05.260Z,11.60
2023-01-20T04:24:38.193Z,11.88
2023-01-20T04:27:04.838Z,10.55
2023-01-20T04:29:31.557Z,9.20
2023-01-20T04:32:01.989Z,9.27
2023-01-20T04:34:28.858Z,8.52
2023-01-20T04:36:55.700Z,9.32
2023-01-20T04:39:22.568Z,7.43
2023-01-20T04:41:49.227Z,12.75
2023-01-20T04:44:15.932Z,7.53
2023-01-20T04:46:42.633Z,8.15
2023-01-20T04:49:11.127Z,9.10
2023-01-20T04:51:37.840Z,7.13
2023-01-20T04:54:04.495Z,8.80
2023-01-20T04:56:31.032Z,12.93
2023-01-20T04:58:58.207Z,10.20
2023-01-20T05:01:24.746Z,8.32
2023-01-20T05:03:51.373Z,10.05
2023-01-20T05:06:19.128Z,9.25
2023-01-20T05:08:45.857Z,8.80
2023-01-20T05:11:12.451Z,10.88
2023-01-20T05:13:39.348Z,10.57
2023-01-20T05:16:07.095Z,11.35
2023-01-20T05:18:34.283Z,13.13
2023-01-20T05:21:00.750Z,13.90
2023-01-20T05:23:27.344Z,10.65
2023-01-20T05:25:53.966Z,11.10
2023-01-20T05:28:20.585Z,13.73
2023-01-20T05:30:48.618Z,15.10
2023-01-20T05:33:17.402Z,12.48
2023-01-20T05:35:44.087Z,9.65
2023-01-20T05:38:10.652Z,9.95
2023-01-20T05:40:37.298Z,13.98
2023-01-20T05:43:04.065Z,8.50
2023-01-20T05:45:31.220Z,10.32
2023-01-20T05:47:58.639Z,10.93
2023-01-20T05:50:26.482Z,10.57
2023-01-20T05:52:53.231Z,10.32
2023-01-20T05:55:32.606Z,8.82
2023-01-20T05:58:01.185Z,9.40
2023-01-20T06:00:27.721Z,10.10
2023-01-20T06:02:54.417Z,11.20
2023-01-20T06:05:21.116Z,5.95
2023-01-20T06:07:49.663Z,7.00
2023-01-20T06:10:16.871Z,10.30
2023-01-20T06:12:43.556Z,14.85
2023-01-20T06:15:10.647Z,8.10
2023-01-20T06:17:37.374Z,8.52
2023-01-20T06:20:05.661Z,11.50
2023-01-20T06:22:32.327Z,15.52
2023-01-20T06:24:58.868Z,8.10
2023-01-20T06:27:25.457Z,7.25
2023-01-20T06:29:52.130Z,7.68
2023-01-20T06:32:19.110Z,10.25
2023-01-20T06:34:46.156Z,6.07
2023-01-20T06:37:12.835Z,7.93
2023-01-20T06:39:40.548Z,7.45
2023-01-20T06:42:07.472Z,10.30
2023-01-20T06:44:34.724Z,5.68
2023-01-20T06:47:01.447Z,10.75
2023-01-20T06:49:28.020Z,11.73
2023-01-20T06:51:54.651Z,6.68
2023-01-20T06:54:21.366Z,6.88
2023-01-20T06:56:47.976Z,7.32
2023-01-20T06:59:14.652Z,9.55
2023-01-20T07:01:41.575Z,11.70
2023-01-20T07:04:09.465Z,10.73
2023-01-20T07:06:39.660Z,9.95
2023-01-20T07:09:07.553Z,7.47
2023-01-20T07:11:35.866Z,6.93
2023-01-20T07:14:03.013Z,8.15
2023-01-20T07:16:29.807Z,8.13
2023-01-20T07:18:56.480Z,11.20
2023-01-20T07:21:26.259Z,6.25
2023-01-20T07:23:53.564Z,6.57
2023-01-20T07:26:21.391Z,11.80
2023-01-20T07:28:48.741Z,9.02
2023-01-20T07:31:17.116Z,8.38
2023-01-20T07:33:43.782Z,7.57
2023-01-20T07:36:11.435Z,11.57
2023-01-20T07:38:38.731Z,6.80
2023-01-20T07:41:06.478Z,8.52
2023-01-20T07:43:33.446Z,12.45
2023-01-20T07:46:01.098Z,8.18
2023-01-20T07:48:28.518Z,11.45
2023-01-20T07:51:05.839Z,7.45
2023-01-20T07:53:33.570Z,9.00
2023-01-20T07:56:00.915Z,12.82
2023-01-20T07:58:28.344Z,7.03
2023-01-20T08:00:54.984Z,5.20
2023-01-20T08:03:21.855Z,9.38
2023-01-20T08:05:48.378Z,8.50
2023-01-20T08:08:15.212Z,9.70
2023-01-20T08:10:41.854Z,7.85
2023-01-20T08:13:08.533Z,11.40
2023-01-20T08:15:35.298Z,9.32
2023-01-20T08:18:01.870Z,10.15
2023-01-20T08:20:28.529Z,10.60
2023-01-20T08:22:55.642Z,5.82
2023-01-20T08:28:06.766Z,11.63
2023-01-20T08:30:33.369Z,8.82
2023-01-20T08:33:00.118Z,6.88
2023-01-20T08:35:27.016Z,8.43
2023-01-20T08:37:53.772Z,11.07
2023-01-20T08:40:20.544Z,6.75
2023-01-20T08:42:47.806Z,6.40
2023-01-20T08:45:15.016Z,8.20
2023-01-20T08:47:44.461Z,8.52
2023-01-20T08:50:12.329Z,6.70
2023-01-20T08:52:39.078Z,7.25
2023-01-20T08:55:05.951Z,9.15
2023-01-20T08:57:33.092Z,9.00
2023-01-20T09:00:00.488Z,13.38
2023-01-20T09:02:27.215Z,8.60
2023-01-20T09:04:54.757Z,9.77
2023-01-20T09:07:23.796Z,9.30
2023-01-20T09:09:50.550Z,7.88
2023-01-20T09:12:17.326Z,8.57
2023-01-20T09:14:44.086Z,9.20
2023-01-20T09:17:14.810Z,7.07
2023-01-20T09:19:41.575Z,10.65
2023-01-20T09:22:08.245Z,12.35
2023-01-20T09:24:35.006Z,10.35
2023-01-20T09:27:04.902Z,7.47
2023-01-20T09:29:31.900Z,8.85
2023-01-20T09:31:58.989Z,11.32
2023-01-20T09:34:27.518Z,11.90
2023-01-20T09:36:55.544Z,12.23
2023-01-20T09:39:41.224Z,8.90
2023-01-20T09:45:22.993Z,10.57
2023-01-20T09:47:50.158Z,10.63
2023-01-20T09:50:52.473Z,8.48
2023-01-20T09:53:32.771Z,7.20
2023-01-20T09:56:01.391Z,7.45
2023-01-20T09:58:32.636Z,10.95
2023-01-20T10:01:06.291Z,9.88
2023-01-20T10:03:40.888Z,9.80
2023-01-20T10:06:11.154Z,8.88
2023-01-20T10:08:59.622Z,10.18
2023-01-20T10:11:33.722Z,11.60
2023-01-20T10:14:08.577Z,7.65
2023-01-20T10:16:40.544Z,10.10
2023-01-20T10:19:19.653Z,10.65
2023-01-20T10:22:06.764Z,11.10
2023-01-20T10:24:37.980Z,11.57
2023-01-20T10:27:05.006Z,16.15
2023-01-20T10:29:35.784Z,12.38
2023-01-20T10:32:05.956Z,11.43
2023-01-20T10:34:36.794Z,11.60
2023-01-20T10:37:06.354Z,9.95
2023-01-20T10:39:35.962Z,12.45
2023-01-20T10:42:04.587Z,10.02
2023-01-20T10:44:33.763Z,10.20
2023-01-20T10:47:03.431Z,9.73
2023-01-20T10:49:39.105Z,6.80
2023-01-20T10:52:24.493Z,9.88
2023-01-20T10:54:59.974Z,5.88
2023-01-20T10:57:26.887Z,10.25
2023-01-20T10:59:55.080Z,10.38
2023-01-20T11:02:24.513Z,17.15
2023-01-20T11:05:01.247Z,11.55
2023-01-20T11:07:28.854Z,10.82
2023-01-20T11:09:55.645Z,6.93
2023-01-20T11:12:23.693Z,8.45
2023-01-20T11:14:50.987Z,11.55
2023-01-20T11:17:18.973Z,7.80
2023-01-20T11:19:55.536Z,10.52
2023-01-20T11:22:29.646Z,11.48
2023-01-20T11:24:59.000Z,13.55
2023-01-20T11:27:30.168Z,9.93
2023-01-20T11:29:59.326Z,10.30
2023-01-20T11:32:30.931Z,6.53
2023-01-20T11:34:57.918Z,12.90
2023-01-20T11:37:26.299Z,7.07
2023-01-20T11:39:55.875Z,6.88
2023-01-20T11:42:27.622Z,12.93
2023-01-20T11:45:01.061Z,6.50
2023-01-20T11:47:34.053Z,12.18
2023-01-20T11:50:06.786Z,8.20
2023-01-20T11:52:38.314Z,8.65
2023-01-20T11:55:17.167Z,10.60
2023-01-20T11:57:56.897Z,10.55
2023-01-20T12:00:26.282Z,7.43
2023-01-20T12:03:00.387Z,5.95
2023-01-20T12:05:44.299Z,13.00
2023-01-20T12:08:16.457Z,9.10
2023-01-20T12:10:43.426Z,8.65
2023-01-20T12:14:00.749Z,9.40
2023-01-20T12:16:28.860Z,8.32
2023-01-20T12:19:02.306Z,11.55
2023-01-20T12:21:34.768Z,11.50
2023-01-20T12:24:11.607Z,10.50
2023-01-20T12:26:38.397Z,11.02
2023-01-20T12:29:04.969Z,13.63
2023-01-20T12:31:32.033Z,8.65
2023-01-20T12:34:05.692Z,10.45
2023-01-20T12:36:41.446Z,9.68
2023-01-20T12:39:26.812Z,13.63
2023-01-20T12:44:23.662Z,11.80
2023-01-20T12:47:10.602Z,12.02
2023-01-20T12:50:00.194Z,7.65
2023-01-20T12:52:32.863Z,15.90
2023-01-20T12:55:04.955Z,12.45
2023-01-20T12:57:34.497Z,12.30
2023-01-20T13:00:15.473Z,13.43
2023-01-20T13:03:00.850Z,13.30
2023-01-20T13:05:27.439Z,11.90
2023-01-20T13:08:01.825Z,12.13
2023-01-20T13:10:51.234Z,12.38
2023-01-20T13:13:24.329Z,9.85
2023-01-20T13:15:56.543Z,8.32
2023-01-20T13:18:25.081Z,13.65
2023-01-20T13:20:52.850Z,13.70
2023-01-20T13:23:29.015Z,7.43
2023-01-20T13:25:56.066Z,10.07
2023-01-20T13:28:24.049Z,12.82
2023-01-20T13:30:54.037Z,12.95
2023-01-20T13:33:39.899Z,18.58
2023-01-20T13:36:14.232Z,8.65
2023-01-20T13:38:41.298Z,13.68
2023-01-20T13:41:08.728Z,11.77
2023-01-20T13:43:36.829Z,15.00
2023-01-20T13:46:03.498Z,10.73
2023-01-20T13:48:31.647Z,11.60
2023-01-20T13:51:16.875Z,10.60
2023-01-20T13:53:43.938Z,8.57
2023-01-20T13:56:27.019Z,6.38
2023-01-20T13:58:54.274Z,9.65
2023-01-20T14:01:21.010Z,11.93
2023-01-20T14:04:04.281Z,10.80
2023-01-20T14:06:33.209Z,19.63
2023-01-20T14:09:01.423Z,11.90
2023-01-20T14:11:29.064Z,8.45
2023-01-20T14:13:56.849Z,7.82
2023-01-20T14:16:27.870Z,8.88
2023-01-20T14:18:56.757Z,10.90
2023-01-20T14:21:24.495Z,11.52
2023-01-20T14:23:51.695Z,15.73
2023-01-20T14:26:23.712Z,7.13
2023-01-20T14:28:52.793Z,10.10
2023-01-20T14:31:25.882Z,13.73
2023-01-20T14:33:55.133Z,10.75
2023-01-20T14:36:22.412Z,13.70
2023-01-20T14:38:57.224Z,8.05
2023-01-20T14:41:35.144Z,9.45
2023-01-20T14:44:03.647Z,11.98
2023-01-20T14:46:31.770Z,13.35
2023-01-20T14:49:01.668Z,12.82
2023-01-20T14:51:28.567Z,13.05
2023-01-20T14:54:17.457Z,9.00
2023-01-20T14:56:47.697Z,8.15
2023-01-20T14:59:18.972Z,11.15
2023-01-20T15:01:50.748Z,12.20
2023-01-20T15:04:19.906Z,9.93
2023-01-20T15:06:53.559Z,14.43
2023-01-20T15:09:26.955Z,12.90
2023-01-20T15:12:13.473Z,13.70
2023-01-20T15:14:40.994Z,9.15
2023-01-20T15:17:08.844Z,13.65
2023-01-20T15:19:35.963Z,15.88
2023-01-20T15:22:19.755Z,17.63
2023-01-20T15:24:47.760Z,10.73
2023-01-20T15:27:28.524Z,15.30
2023-01-20T15:29:58.784Z,15.77
2023-01-20T15:32:25.509Z,12.77
2023-01-20T15:34:52.039Z,10.77
2023-01-20T15:37:19.272Z,10.00
2023-01-20T15:39:45.794Z,11.38
2023-01-20T15:42:13.236Z,9.50
2023-01-20T15:44:39.946Z,9.68
2023-01-20T15:47:31.434Z,4.75
2023-01-20T15:49:58.270Z,11.43
2023-01-20T15:52:24.802Z,9.35
2023-01-20T15:54:51.336Z,8.43
2023-01-20T15:57:18.234Z,9.68
2023-01-20T15:59:49.824Z,10.35
2023-01-20T16:02:20.268Z,9.43
2023-01-20T16:04:46.976Z,10.88
2023-01-20T16:07:14.949Z,10.23
2023-01-20T16:09:42.059Z,8.27
2023-01-20T16:12:11.197Z,11.45
2023-01-20T16:14:37.943Z,11.35
2023-01-20T16:17:04.679Z,8.98
2023-01-20T16:19:31.527Z,11.25
2023-01-20T16:21:58.273Z,8.60
2023-01-20T16:24:24.994Z,5.45
2023-01-20T16:26:51.533Z,7.63
2023-01-20T16:29:18.144Z,7.15
2023-01-20T16:31:44.885Z,5.93
2023-01-20T16:34:11.499Z,5.28
2023-01-20T16:36:38.112Z,6.50
2023-01-20T16:39:04.929Z,4.63
2023-01-20T16:41:31.666Z,6.57
2023-01-20T16:43:58.703Z,8.15
2023-01-20T16:46:27.172Z,8.90
2023-01-20T16:48:59.257Z,6.10
2023-01-20T16:51:26.575Z,12.98
2023-01-20T16:53:53.651Z,26.80
2023-01-20T16:56:21.442Z,41.55
2023-01-20T16:58:48.678Z,42.15
2023-01-20T17:01:20.861Z,46.10
2023-01-20T17:03:48.012Z,60.53
2023-01-20T17:06:17.617Z,43.15
2023-01-20T17:08:48.610Z,16.20
2023-01-20T17:11:24.433Z,6.35
2023-01-20T17:13:51.821Z,6.65
2023-01-20T17:16:18.655Z,5.43
2023-01-20T17:18:48.365Z,6.05
2023-01-20T17:21:15.401Z,8.50
2023-01-20T17:23:42.088Z,5.97
2023-01-20T17:26:09.221Z,6.10
2023-01-20T17:28:35.899Z,2.20
2023-01-20T17:31:02.997Z,6.30
2023-01-20T17:33:29.864Z,10.30
2023-01-20T17:36:00.172Z,2.38
2023-01-20T17:38:30.624Z,4.38
2023-01-20T17:41:04.248Z,5.50
2023-01-20T17:43:34.422Z,5.07
2023-01-20T17:46:01.447Z,10.15
2023-01-20T17:48:28.078Z,6.70
2023-01-20T17:50:59.402Z,7.47
2023-01-20T17:53:26.885Z,3.30
2023-01-20T17:56:06.794Z,9.23
2023-01-20T17:58:38.391Z,5.50
2023-01-20T18:01:14.388Z,5.03
2023-01-20T18:03:42.955Z,3.20
2023-01-20T18:06:11.030Z,5.95
2023-01-20T18:08:38.573Z,4.78
2023-01-20T18:11:06.646Z,7.90
2023-01-20T18:13:33.419Z,6.05
2023-01-20T18:16:04.372Z,5.53
2023-01-20T18:18:32.141Z,7.15
2023-01-20T18:21:09.381Z,8.38
2023-01-20T18:23:38.978Z,7.90
2023-01-20T18:26:06.467Z,9.77
2023-01-20T18:28:33.765Z,6.88
2023-01-20T18:31:08.622Z,6.43
2023-01-20T18:33:38.718Z,9.18
2023-01-20T18:36:06.331Z,7.75
2023-01-20T18:38:33.365Z,6.85
2023-01-20T18:41:03.549Z,6.78
2023-01-20T18:43:30.309Z,10.13
2023-01-20T18:45:57.187Z,7.45
2023-01-20T18:48:25.457Z,8.48
2023-01-20T18:50:53.021Z,8.75
2023-01-20T18:53:19.636Z,9.40
2023-01-20T18:55:46.330Z,9.10
2023-01-20T18:58:16.448Z,11.10
2023-01-20T19:00:43.695Z,10.70
2023-01-20T19:03:10.695Z,10.02
2023-01-20T19:05:37.429Z,11.68
2023-01-20T19:08:05.090Z,10.95
2023-01-20T19:10:32.033Z,13.50
2023-01-20T19:12:58.569Z,13.68
2023-01-20T19:15:25.298Z,14.93
2023-01-20T19:17:52.549Z,14.57
2023-01-20T19:20:19.168Z,14.40
2023-01-20T19:22:45.793Z,14.32
2023-01-20T19:25:12.583Z,15.55
2023-01-20T19:27:39.178Z,14.30
2023-01-20T19:30:06.154Z,15.00
2023-01-20T19:32:32.812Z,14.02
2023-01-20T19:34:59.429Z,14.23
2023-01-20T19:37:26.197Z,12.15
2023-01-20T19:39:52.806Z,12.57
2023-01-20T19:42:19.501Z,12.07
2023-01-20T19:44:46.518Z,13.52
2023-01-20T19:47:13.029Z,13.30
2023-01-20T19:49:39.715Z,13.23
2023-01-20T19:52:06.664Z,13.75
2023-01-20T19:54:33.712Z,15.63
2023-01-20T19:57:00.366Z,11.98
2023-01-20T19:59:27.094Z,13.82
2023-01-20T20:01:53.760Z,12.05
2023-01-20T20:04:20.868Z,11.35
2023-01-20T20:06:48.784Z,11.85
2023-01-20T20:09:17.441Z,11.60
2023-01-20T20:11:44.287Z,12.55
2023-01-20T20:14:13.308Z,12.57
2023-01-20T20:16:40.018Z,12.88
2023-01-20T20:19:07.278Z,12.73
2023-01-20T20:21:34.196Z,13.48
2023-01-20T20:24:01.636Z,12.93
2023-01-20T20:26:29.871Z,12.70
2023-01-20T20:28:58.049Z,10.63
2023-01-20T20:31:29.440Z,13.77
2023-01-20T20:34:00.495Z,13.38
2023-01-20T20:36:32.226Z,12.02
2023-01-20T20:38:59.446Z,12.18
2023-01-20T20:41:28.939Z,13.73
2023-01-20T20:43:56.917Z,13.65
2023-01-20T20:46:23.936Z,15.05
2023-01-20T20:48:53.456Z,14.00
2023-01-20T20:51:20.201Z,14.52
2023-01-20T20:53:46.744Z,14.38
2023-01-20T20:56:14.483Z,16.35
2023-01-20T20:58:55.515Z,16.45
2023-01-20T21:01:27.640Z,16.02
2023-01-20T21:03:56.691Z,17.77
2023-01-20T21:06:23.790Z,14.75
2023-01-20T21:08:50.491Z,14.52
2023-01-20T21:11:17.312Z,16.65
2023-01-20T21:13:44.463Z,16.00
2023-01-20T21:16:14.065Z,17.13
2023-01-20T21:18:41.905Z,14.15
2023-01-20T21:21:11.216Z,14.90
2023-01-20T21:23:38.796Z,13.32
2023-01-20T21:26:06.732Z,13.88
2023-01-20T21:28:35.570Z,14.43
2023-01-20T21:31:09.731Z,14.45
2023-01-20T21:33:39.895Z,16.75
2023-01-20T21:36:08.879Z,15.85
2023-01-20T21:38:36.565Z,16.90
2023-01-20T21:41:04.364Z,16.23
2023-01-20T21:43:53.026Z,15.25
2023-01-20T21:46:20.463Z,16.42
2023-01-20T21:49:05.765Z,16.08
2023-01-20T21:51:51.125Z,15.88
2023-01-20T21:56:44.538Z,17.85
2023-01-20T21:59:11.422Z,18.20
2023-01-20T22:01:38.309Z,21.02
2023-01-20T22:04:05.254Z,19.77
2023-01-20T22:06:31.804Z,18.80
2023-01-20T22:08:59.803Z,22.02
2023-01-20T22:11:26.960Z,18.08
2023-01-20T22:13:56.812Z,22.80
2023-01-20T22:16:24.074Z,18.08
2023-01-20T22:18:51.163Z,20.00
2023-01-20T22:21:18.245Z,21.63
2023-01-20T22:23:45.369Z,19.05
2023-01-20T22:26:12.060Z,19.08
2023-01-20T22:28:41.325Z,19.60
2023-01-20T22:31:08.932Z,19.48
2023-01-20T22:33:35.692Z,23.90
2023-01-20T22:36:03.131Z,23.98
2023-01-20T22:38:30.027Z,21.55
2023-01-20T22:41:02.280Z,24.13
2023-01-20T22:43:29.152Z,23.35
2023-01-20T22:45:59.715Z,27.48
2023-01-20T22:48:26.844Z,26.20
2023-01-20T22:50:54.620Z,27.60
2023-01-20T22:53:21.489Z,26.70
2023-01-20T22:56:00.352Z,24.83
2023-01-20T22:58:27.476Z,28.20
2023-01-20T23:00:54.218Z,26.35
2023-01-20T23:03:20.956Z,26.92
2023-01-20T23:05:51.879Z,31.35
2023-01-20T23:08:18.764Z,29.75
2023-01-20T23:10:48.148Z,29.83
2023-01-20T23:13:15.827Z,28.40
2023-01-20T23:15:42.490Z,32.65
2023-01-20T23:18:09.738Z,29.17
2023-01-20T23:20:36.595Z,30.05
2023-01-20T23:23:03.231Z,30.05
2023-01-20T23:25:30.082Z,33.88
2023-01-20T23:27:56.721Z,30.77
2023-01-20T23:30:23.177Z,29.17
2023-01-20T23:32:49.756Z,28.90
2023-01-20T23:35:16.466Z,32.15
2023-01-20T23:37:43.120Z,31.02
2023-01-20T23:40:10.137Z,31.35
2023-01-20T23:42:36.677Z,28.27
2023-01-20T23:45:03.301Z,28.60
2023-01-20T23:47:29.915Z,32.17
2023-01-20T23:49:56.494Z,31.27
2023-01-20T23:52:24.925Z,34.33
2023-01-20T23:54:52.553Z,33.42
2023-01-20T23:57:19.663Z,35.55
2023-01-20T23:59:46.476Z,32.80
